createdAt,value
2023-03-24T00:01:58.931Z,99796.42
2023-03-24T00:04:30.169Z,99791.42
2023-03-24T00:07:02.254Z,99794.20
2023-03-24T00:09:33.072Z,99787.83
2023-03-24T00:12:05.112Z,99788.21
2023-03-24T00:14:35.771Z,99790.63
2023-03-24T00:17:10.693Z,99799.80
2023-03-24T00:19:45.698Z,99797.23
2023-03-24T00:22:16.422Z,99793.97
2023-03-24T00:24:47.521Z,99794.31
2023-03-24T00:27:19.241Z,99801.08
2023-03-24T00:29:49.844Z,99788.35
2023-03-24T00:32:20.629Z,99780.11
2023-03-24T00:34:54.743Z,99781.41
2023-03-24T00:37:25.407Z,99780.41
2023-03-24T00:39:56.078Z,99780.43
2023-03-24T00:42:26.765Z,99787.00
2023-03-24T00:44:57.500Z,99785.13
2023-03-24T00:47:29.507Z,99783.23
2023-03-24T00:50:02.685Z,99779.10
2023-03-24T00:52:34.779Z,99770.67
2023-03-24T00:55:09.437Z,99765.19
2023-03-24T00:57:41.261Z,99760.41
2023-03-24T01:00:17.383Z,99759.22
2023-03-24T01:02:54.174Z,99760.67
2023-03-24T01:05:28.482Z,99764.66
2023-03-24T01:08:05.445Z,99764.70
2023-03-24T01:10:43.247Z,99759.20
2023-03-24T01:13:16.064Z,99746.44
2023-03-24T01:15:47.101Z,99739.74
2023-03-24T01:18:18.923Z,99740.99
2023-03-24T01:20:50.872Z,99743.26
2023-03-24T01:23:26.300Z,99737.79
2023-03-24T01:25:59.699Z,99732.15
2023-03-24T01:28:30.599Z,99731.64
2023-03-24T01:31:01.276Z,99730.11
2023-03-24T01:33:32.190Z,99730.33
2023-03-24T01:36:02.886Z,99727.96
2023-03-24T01:38:33.491Z,99727.11
2023-03-24T01:41:06.158Z,99722.88
2023-03-24T01:43:38.259Z,99719.14
2023-03-24T01:46:24.816Z,99712.63
2023-03-24T01:49:10.483Z,99713.93
2023-03-24T01:51:44.771Z,99721.35
2023-03-24T01:54:33.766Z,99713.62
2023-03-24T01:57:11.864Z,99713.81
2023-03-24T01:59:49.211Z,99721.23
2023-03-24T02:02:43.240Z,99722.13
2023-03-24T02:05:16.208Z,99723.17
2023-03-24T02:08:03.466Z,99723.04
2023-03-24T02:10:37.332Z,99727.41
2023-03-24T02:13:13.920Z,99725.56
2023-03-24T02:16:05.413Z,99724.56
2023-03-24T02:27:48.793Z,99720.91
2023-03-24T02:31:17.061Z,99714.59
2023-03-24T02:34:05.054Z,99708.98
2023-03-24T02:37:30.205Z,99709.52
2023-03-24T02:41:07.681Z,99702.16
2023-03-24T02:45:14.918Z,99698.06
2023-03-24T02:48:21.395Z,99705.11
2023-03-24T02:55:33.846Z,99703.73
2023-03-24T02:58:47.904Z,99702.88
2023-03-24T03:01:58.885Z,99697.23
2023-03-24T03:05:24.401Z,99697.80
2023-03-24T03:08:18.564Z,99701.45
2023-03-24T03:11:05.463Z,99702.67
2023-03-24T03:14:12.081Z,99704.91
2023-03-24T03:17:01.960Z,99707.17
2023-03-24T03:19:52.380Z,99706.13
2023-03-24T03:22:44.366Z,99705.61
2023-03-24T03:26:15.682Z,99709.23
2023-03-24T03:29:53.167Z,99706.30
2023-03-24T03:32:34.505Z,99711.83
2023-03-24T03:35:30.031Z,99710.64
2023-03-24T03:38:36.719Z,99715.45
2023-03-24T03:45:59.652Z,99710.28
2023-03-24T03:49:26.807Z,99709.95
2023-03-24T03:52:20.849Z,99707.20
2023-03-24T03:55:25.813Z,99703.24
2023-03-24T03:58:31.796Z,99703.09
2023-03-24T04:01:31.858Z,99702.20
2023-03-24T04:05:06.619Z,99703.77
2023-03-24T04:08:08.118Z,99703.58
2023-03-24T04:15:10.909Z,99690.67
2023-03-24T04:18:28.228Z,99687.92
2023-03-24T04:21:33.688Z,99683.48
2023-03-24T04:24:57.836Z,99675.75
2023-03-24T04:31:58.347Z,99667.48
2023-03-24T04:34:54.936Z,99664.55
2023-03-24T04:37:39.184Z,99663.73
2023-03-24T04:41:14.715Z,99667.02
2023-03-24T04:44:22.595Z,99663.59
2023-03-24T04:47:55.713Z,99656.92
2023-03-24T04:51:24.037Z,99651.59
2023-03-24T04:59:28.889Z,99642.46
2023-03-24T05:03:21.014Z,99635.94
2023-03-24T05:06:19.540Z,99634.91
2023-03-24T05:09:16.433Z,99628.55
2023-03-24T05:11:50.223Z,99630.60
2023-03-24T05:17:45.044Z,99626.79
2023-03-24T05:21:16.055Z,99625.90
2023-03-24T05:28:54.370Z,99618.49
2023-03-24T05:31:27.101Z,99618.98
2023-03-24T05:34:27.700Z,99621.70
2023-03-24T05:38:47.475Z,99622.88
2023-03-24T05:42:36.503Z,99619.58
2023-03-24T05:46:18.665Z,99620.77
2023-03-24T05:49:30.791Z,99611.29
2023-03-24T06:01:55.390Z,99586.82
2023-03-24T06:04:59.714Z,99574.59
2023-03-24T06:08:01.879Z,99570.79
2023-03-24T06:10:39.038Z,99566.13
2023-03-24T06:13:10.810Z,99566.13
2023-03-24T06:23:17.301Z,99558.90
2023-03-24T06:27:14.838Z,99561.46
2023-03-24T06:30:30.962Z,99563.48
2023-03-24T06:33:42.995Z,99559.84
2023-03-24T06:37:16.048Z,99558.27
2023-03-24T06:40:24.933Z,99560.33
2023-03-24T06:43:50.839Z,99563.40
2023-03-24T06:46:49.829Z,99566.45
2023-03-24T06:54:29.806Z,99560.48
2023-03-24T06:58:44.372Z,99550.98
2023-03-24T07:01:39.793Z,99545.61
2023-03-24T07:04:56.403Z,99546.91
2023-03-24T07:11:02.511Z,99536.11
2023-03-24T07:17:45.552Z,99526.65
2023-03-24T07:20:40.446Z,99527.29
2023-03-24T07:24:04.144Z,99522.52
2023-03-24T07:28:00.561Z,99520.04
2023-03-24T07:30:39.912Z,99511.66
2023-03-24T07:33:12.950Z,99507.28
2023-03-24T07:35:50.902Z,99498.06
2023-03-24T07:38:37.678Z,99495.61
2023-03-24T07:41:15.760Z,99488.65
2023-03-24T07:43:52.877Z,99484.39
2023-03-24T07:46:27.745Z,99485.28
2023-03-24T07:49:05.724Z,99483.52
2023-03-24T07:51:40.105Z,99484.72
2023-03-24T07:54:30.248Z,99477.81
2023-03-24T07:57:02.732Z,99477.87
2023-03-24T07:59:36.578Z,99476.04
2023-03-24T08:02:23.101Z,99464.23
2023-03-24T08:05:03.329Z,99462.90
2023-03-24T08:07:57.944Z,99462.35
2023-03-24T08:11:01.709Z,99457.73
2023-03-24T08:13:35.095Z,99452.93
2023-03-24T08:16:05.940Z,99455.89
2023-03-24T08:18:43.491Z,99447.31
2023-03-24T08:21:14.076Z,99438.12
2023-03-24T08:23:44.702Z,99441.67
2023-03-24T08:26:18.396Z,99435.61
2023-03-24T08:28:50.002Z,99433.94
2023-03-24T08:31:22.735Z,99439.00
2023-03-24T08:33:55.843Z,99434.96
2023-03-24T08:36:27.202Z,99435.58
2023-03-24T08:38:58.522Z,99437.23
2023-03-24T08:41:35.459Z,99439.77
2023-03-24T08:44:09.010Z,99435.27
2023-03-24T08:46:39.763Z,99438.56
2023-03-24T08:49:10.504Z,99438.62
2023-03-24T08:51:41.567Z,99433.11
2023-03-24T08:54:13.139Z,99434.98
2023-03-24T08:56:43.873Z,99429.60
2023-03-24T08:59:15.907Z,99431.33
2023-03-24T09:01:46.533Z,99428.59
2023-03-24T09:04:17.218Z,99422.14
2023-03-24T09:06:47.938Z,99418.52
2023-03-24T09:09:18.552Z,99415.70
2023-03-24T09:11:49.471Z,99411.38
2023-03-24T09:14:20.055Z,99406.84
2023-03-24T09:16:51.736Z,99399.88
2023-03-24T09:19:22.329Z,99398.06
2023-03-24T09:21:53.079Z,99396.73
2023-03-24T09:24:23.600Z,99394.98
2023-03-24T09:26:56.332Z,99394.77
2023-03-24T09:29:28.025Z,99397.53
2023-03-24T09:31:59.437Z,99390.58
2023-03-24T09:34:31.112Z,99388.90
2023-03-24T09:37:04.669Z,99386.73
2023-03-24T09:39:38.004Z,99374.91
2023-03-24T09:42:09.747Z,99365.05
2023-03-24T09:44:45.838Z,99362.58
2023-03-24T09:47:28.517Z,99350.65
2023-03-24T09:50:41.286Z,99337.18
2023-03-24T09:53:35.105Z,99328.58
2023-03-24T09:56:14.821Z,99328.10
2023-03-24T09:58:49.707Z,99326.95
2023-03-24T10:01:54.743Z,99330.89
2023-03-24T10:04:28.733Z,99321.33
2023-03-24T10:07:31.398Z,99312.33
2023-03-24T10:10:04.060Z,99303.73
2023-03-24T10:12:40.958Z,99303.02
2023-03-24T10:15:30.862Z,99300.11
2023-03-24T10:18:15.232Z,99284.88
2023-03-24T10:20:58.422Z,99294.01
2023-03-24T10:23:44.520Z,99288.95
2023-03-24T10:26:18.534Z,99290.77
2023-03-24T10:28:53.417Z,99283.33
2023-03-24T10:31:31.728Z,99291.45
2023-03-24T10:34:02.695Z,99292.84
2023-03-24T10:36:36.437Z,99290.02
2023-03-24T10:41:48.836Z,99299.29
2023-03-24T10:44:20.516Z,99295.02
2023-03-24T10:46:57.970Z,99298.00
2023-03-24T10:49:55.316Z,99293.99
2023-03-24T10:53:23.743Z,99292.73
2023-03-24T10:57:00.895Z,99289.59
2023-03-24T11:00:34.978Z,99281.95
2023-03-24T11:04:06.567Z,99276.94
2023-03-24T11:07:21.567Z,99274.98
2023-03-24T11:10:03.974Z,99275.33
2023-03-24T11:12:39.269Z,99267.52
2023-03-24T11:15:24.500Z,99263.36
2023-03-24T11:17:58.344Z,99265.23
2023-03-24T11:20:35.996Z,99262.72
2023-03-24T11:23:22.133Z,99255.52
2023-03-24T11:26:08.138Z,99254.95
2023-03-24T11:28:43.301Z,99244.59
2023-03-24T11:31:24.995Z,99242.98
2023-03-24T11:34:35.581Z,99244.76
2023-03-24T11:37:23.481Z,99230.17
2023-03-24T11:40:17.255Z,99232.98
2023-03-24T11:43:01.885Z,99233.63
2023-03-24T11:45:42.767Z,99233.66
2023-03-24T11:48:26.995Z,99221.67
2023-03-24T11:51:00.969Z,99215.21
2023-03-24T11:53:47.402Z,99213.29
2023-03-24T11:56:33.306Z,99201.54
2023-03-24T11:59:36.749Z,99209.92
2023-03-24T12:02:49.092Z,99207.48
2023-03-24T12:05:39.724Z,99205.94
2023-03-24T12:15:27.296Z,99205.83
2023-03-24T12:18:02.234Z,99206.91
2023-03-24T12:20:39.367Z,99196.21
2023-03-24T12:23:36.476Z,99190.33
2023-03-24T12:26:26.720Z,99184.77
2023-03-24T12:29:35.845Z,99179.51
2023-03-24T12:32:43.673Z,99170.92
2023-03-24T12:35:49.325Z,99168.36
2023-03-24T12:38:32.831Z,99161.19
2023-03-24T12:41:26.702Z,99154.08
2023-03-24T12:44:09.694Z,99159.13
2023-03-24T12:46:48.386Z,99153.33
2023-03-24T12:50:19.359Z,99153.71
2023-03-24T12:53:27.093Z,99156.19
2023-03-24T12:56:11.202Z,99158.06
2023-03-24T12:59:20.961Z,99153.48
2023-03-24T13:01:55.366Z,99153.70
2023-03-24T13:09:26.828Z,99154.25
2023-03-24T13:12:22.695Z,99149.73
2023-03-24T13:15:53.148Z,99144.02
2023-03-24T13:19:01.008Z,99132.91
2023-03-24T13:21:35.771Z,99132.50
2023-03-24T13:24:15.441Z,99132.92
2023-03-24T13:27:09.187Z,99134.05
2023-03-24T13:30:08.803Z,99133.08
2023-03-24T13:32:52.894Z,99131.77
2023-03-24T13:36:06.470Z,99128.91
2023-03-24T13:40:00.357Z,99127.02
2023-03-24T13:44:15.765Z,99131.20
2023-03-24T13:47:57.703Z,99137.11
2023-03-24T13:54:41.211Z,99129.09
2023-03-24T13:57:52.349Z,99133.42
2023-03-24T14:00:51.412Z,99134.17
2023-03-24T14:04:28.751Z,99137.26
2023-03-24T14:07:21.708Z,99135.21
2023-03-24T14:10:21.647Z,99144.94
2023-03-24T14:13:02.160Z,99147.52
2023-03-24T14:15:55.383Z,99147.48
2023-03-24T14:19:21.329Z,99147.70
2023-03-24T14:22:32.197Z,99146.39
2023-03-24T14:25:09.318Z,99140.23
2023-03-24T14:28:07.603Z,99140.04
2023-03-24T14:30:53.024Z,99138.41
2023-03-24T14:35:21.276Z,99135.52
2023-03-24T14:38:37.288Z,99130.09
2023-03-24T14:41:44.810Z,99120.39
2023-03-24T14:44:15.975Z,99126.06
2023-03-24T14:46:52.278Z,99123.98
2023-03-24T14:49:25.224Z,99125.73
2023-03-24T14:52:19.878Z,99112.73
2023-03-24T14:54:59.454Z,99103.73
2023-03-24T14:59:03.600Z,99109.84
2023-03-24T15:01:37.214Z,99104.59
2023-03-24T15:04:11.677Z,99105.64
2023-03-24T15:07:11.224Z,99107.35
2023-03-24T15:10:02.131Z,99110.44
2023-03-24T15:12:36.761Z,99106.59
2023-03-24T15:15:23.312Z,99104.27
2023-03-24T15:18:24.021Z,99101.40
2023-03-24T15:20:58.963Z,99105.63
2023-03-24T15:24:02.690Z,99100.48
2023-03-24T15:26:34.710Z,99101.62
2023-03-24T15:29:09.643Z,99098.42
2023-03-24T15:31:42.479Z,99094.50
2023-03-24T15:34:36.744Z,99094.30
2023-03-24T15:37:56.953Z,99089.67
2023-03-24T15:40:39.401Z,99091.65
2023-03-24T15:44:07.814Z,99086.39
2023-03-24T15:47:28.070Z,99089.56
2023-03-24T15:50:53.145Z,99092.08
2023-03-24T15:53:59.586Z,99087.01
2023-03-24T15:57:09.228Z,99085.11
2023-03-24T15:59:45.154Z,99086.42
2023-03-24T16:03:19.416Z,99087.35
2023-03-24T16:06:59.298Z,99085.73
2023-03-24T16:10:08.048Z,99085.31
2023-03-24T16:13:31.318Z,99080.76
2023-03-24T16:16:48.385Z,99081.77
2023-03-24T16:20:13.248Z,99081.22
2023-03-24T16:23:50.448Z,99080.23
2023-03-24T16:26:43.902Z,99078.52
2023-03-24T16:29:25.998Z,99076.39
2023-03-24T16:31:59.328Z,99071.48
2023-03-24T16:34:32.339Z,99078.16
2023-03-24T16:37:03.112Z,99079.13
2023-03-24T16:39:33.689Z,99078.92
2023-03-24T16:42:04.509Z,99080.66
2023-03-24T16:44:35.357Z,99083.45
2023-03-24T16:47:11.200Z,99085.48
2023-03-24T16:50:03.344Z,99094.23
2023-03-24T16:52:51.370Z,99100.54
2023-03-24T16:56:04.512Z,99101.45
2023-03-24T16:59:15.355Z,99103.41
2023-03-24T17:02:07.058Z,99118.45
2023-03-24T17:04:41.782Z,99118.15
2023-03-24T17:07:33.082Z,99111.91
2023-03-24T17:10:40.510Z,99105.20
2023-03-24T17:13:46.395Z,99109.92
2023-03-24T17:16:50.285Z,99114.07
2023-03-24T17:19:58.363Z,99105.85
2023-03-24T17:22:46.286Z,99104.74
2023-03-24T17:26:11.356Z,99100.48
2023-03-24T17:30:07.789Z,99101.96
2023-03-24T17:34:08.639Z,99097.90
2023-03-24T17:37:32.220Z,99095.77
2023-03-24T17:40:49.099Z,99095.05
2023-03-24T17:43:39.313Z,99098.86
2023-03-24T17:46:28.491Z,99095.74
2023-03-24T17:50:03.270Z,99096.42
2023-03-24T17:53:23.822Z,99103.08
2023-03-24T17:56:53.633Z,99103.39
2023-03-24T18:00:27.622Z,99086.13
2023-03-24T18:03:53.056Z,99091.29
2023-03-24T18:07:26.280Z,99097.02
2023-03-24T18:10:57.098Z,99095.58
2023-03-24T18:14:27.328Z,99107.11
2023-03-24T18:17:38.152Z,99110.20
2023-03-24T18:20:49.321Z,99112.08
2023-03-24T18:23:35.238Z,99115.23
2023-03-24T18:26:42.601Z,99113.86
2023-03-24T18:29:43.598Z,99120.39
2023-03-24T18:32:22.582Z,99123.42
2023-03-24T18:34:55.970Z,99132.97
2023-03-24T18:37:29.820Z,99136.20
2023-03-24T18:40:03.203Z,99147.00
2023-03-24T18:42:37.428Z,99160.93
2023-03-24T18:45:12.341Z,99168.71
2023-03-24T18:47:50.023Z,99178.66
2023-03-24T18:50:29.340Z,99184.02
2023-03-24T18:53:04.728Z,99194.16
2023-03-24T18:55:40.320Z,99201.09
2023-03-24T18:58:22.188Z,99206.89
2023-03-24T19:01:03.532Z,99215.39
2023-03-24T19:03:39.638Z,99229.27
2023-03-24T19:06:16.489Z,99236.67
2023-03-24T19:08:53.984Z,99231.92
2023-03-24T19:11:27.396Z,99219.52
2023-03-24T19:14:00.967Z,99220.84
2023-03-24T19:16:36.573Z,99216.88
2023-03-24T19:19:10.969Z,99211.89
2023-03-24T19:21:44.424Z,99216.32
2023-03-24T19:24:23.256Z,99224.32
2023-03-24T19:27:09.607Z,99225.94
2023-03-24T19:29:42.554Z,99225.05
2023-03-24T19:32:15.289Z,99227.19
2023-03-24T19:34:49.575Z,99227.84
2023-03-24T19:37:24.122Z,99234.38
2023-03-24T19:40:07.897Z,99234.55
2023-03-24T19:42:42.458Z,99237.88
2023-03-24T19:45:19.957Z,99237.80
2023-03-24T19:47:52.715Z,99231.92
2023-03-24T19:50:24.832Z,99227.58
2023-03-24T19:52:58.373Z,99226.98
2023-03-24T19:55:31.526Z,99233.87
2023-03-24T19:58:06.027Z,99229.48
2023-03-24T20:00:41.709Z,99227.98
2023-03-24T20:03:13.477Z,99234.73
2023-03-24T20:05:50.865Z,99224.73
2023-03-24T20:08:32.290Z,99227.27
2023-03-24T20:11:31.593Z,99224.13
2023-03-24T20:14:06.939Z,99228.77
2023-03-24T20:16:41.227Z,99221.16
2023-03-24T20:19:15.647Z,99236.81
2023-03-24T20:21:53.598Z,99250.09
2023-03-24T20:24:27.825Z,99249.57
2023-03-24T20:27:05.916Z,99243.20
2023-03-24T20:29:39.868Z,99242.54
2023-03-24T20:32:15.818Z,99245.20
2023-03-24T20:35:12.470Z,99243.73
2023-03-24T20:38:14.515Z,99247.41
2023-03-24T20:41:11.090Z,99239.17
2023-03-24T20:44:19.579Z,99246.40
2023-03-24T20:47:46.932Z,99247.16
2023-03-24T20:51:32.111Z,99240.42
2023-03-24T20:54:47.954Z,99235.91
2023-03-24T21:01:38.752Z,99265.68
2023-03-24T21:04:50.722Z,99263.69
2023-03-24T21:08:02.950Z,99259.50
2023-03-24T21:11:00.120Z,99256.42
2023-03-24T21:14:09.859Z,99264.00
2023-03-24T21:21:08.586Z,99276.27
2023-03-24T21:24:35.961Z,99263.48
2023-03-24T21:27:35.992Z,99253.44
2023-03-24T21:30:58.976Z,99255.90
2023-03-24T21:34:25.257Z,99256.38
2023-03-24T21:37:58.508Z,99258.23
2023-03-24T21:41:10.354Z,99259.10
2023-03-24T21:44:23.522Z,99262.66
2023-03-24T21:47:45.711Z,99265.40
2023-03-24T21:51:18.375Z,99268.84
2023-03-24T21:54:36.292Z,99273.79
2023-03-24T21:58:04.401Z,99272.95
2023-03-24T22:01:19.465Z,99269.34
2023-03-24T22:04:25.520Z,99277.88
2023-03-24T22:07:23.367Z,99288.08
2023-03-24T22:10:43.285Z,99287.63
2023-03-24T22:14:07.417Z,99279.66
2023-03-24T22:21:15.332Z,99283.40
2023-03-24T22:24:38.543Z,99293.42
2023-03-24T22:27:40.276Z,99305.42
2023-03-24T22:30:37.343Z,99305.77
2023-03-24T22:33:36.414Z,99302.14
2023-03-24T22:36:42.345Z,99305.80
2023-03-24T22:39:48.390Z,99312.68
2023-03-24T22:43:03.475Z,99316.82
2023-03-24T22:46:07.652Z,99313.38
2023-03-24T22:49:20.365Z,99311.02
2023-03-24T22:52:49.536Z,99304.90
2023-03-24T22:55:58.294Z,99298.78
2023-03-24T22:59:12.344Z,99296.36
2023-03-24T23:02:15.432Z,99304.03
2023-03-24T23:05:22.343Z,99326.41
2023-03-24T23:08:29.270Z,99333.27
2023-03-24T23:11:29.317Z,99338.39
2023-03-24T23:14:34.395Z,99343.38
2023-03-24T23:17:25.486Z,99341.48
2023-03-24T23:20:26.302Z,99342.75
2023-03-24T23:23:30.943Z,99333.36
2023-03-24T23:26:48.380Z,99345.40
2023-03-24T23:29:46.240Z,99356.38
2023-03-24T23:32:52.355Z,99345.02
2023-03-24T23:35:53.287Z,99347.35
2023-03-24T23:39:12.404Z,99345.05
2023-03-24T23:42:27.402Z,99348.02
2023-03-24T23:45:47.320Z,99341.46
2023-03-24T23:49:01.220Z,99336.98
2023-03-24T23:52:10.301Z,99328.72
2023-03-24T23:55:27.256Z,99328.68
2023-03-24T23:58:40.282Z,99332.77
